createdAt,value
2018-02-13T00:00:40.572Z,68.40
2018-02-13T00:03:06.817Z,69.60
2018-02-13T00:05:33.052Z,69.90
2018-02-13T00:07:59.268Z,70.90
2018-02-13T00:10:25.548Z,69.70
2018-02-13T00:12:52.133Z,69.70
2018-02-13T00:15:19.120Z,70.80
2018-02-13T00:17:45.344Z,70.80
2018-02-13T00:20:11.597Z,71.60
2018-02-13T00:22:47.117Z,70.50
2018-02-13T00:25:14.108Z,70.10
2018-02-13T00:27:40.479Z,70.10
2018-02-13T00:30:06.832Z,69.60
2018-02-13T00:32:34.045Z,68.70
2018-02-13T00:35:00.331Z,69.30
2018-02-13T00:37:27.465Z,69.10
2018-02-13T00:39:53.773Z,69.10
2018-02-13T00:42:19.991Z,68.80
2018-02-13T00:44:46.222Z,68.30
2018-02-13T00:47:12.516Z,68.20
2018-02-13T00:49:38.808Z,69.10
2018-02-13T00:52:05.044Z,70.00
2018-02-13T00:54:31.241Z,69.00
2018-02-13T00:56:58.192Z,69.80
2018-02-13T00:59:24.519Z,69.80
2018-02-13T01:01:50.785Z,69.30
2018-02-13T01:04:17.060Z,69.40
2018-02-13T01:06:43.333Z,70.70
2018-02-13T01:09:09.554Z,70.20
2018-02-13T01:11:35.778Z,70.50
2018-02-13T01:14:02.021Z,69.50
2018-02-13T01:16:28.258Z,69.90
2018-02-13T01:18:55.235Z,70.10
2018-02-13T01:21:21.461Z,69.60
2018-02-13T01:23:47.717Z,70.10
2018-02-13T01:26:13.951Z,69.90
2018-02-13T01:28:40.160Z,69.80
2018-02-13T01:31:06.368Z,69.00
2018-02-13T01:33:33.389Z,69.80
2018-02-13T01:35:59.630Z,69.80
2018-02-13T01:38:25.907Z,70.20
2018-02-13T01:40:52.151Z,70.60
2018-02-13T01:43:18.366Z,70.50
2018-02-13T01:45:44.595Z,72.40
2018-02-13T01:48:14.168Z,71.60
2018-02-13T01:50:41.134Z,71.10
2018-02-13T01:53:07.409Z,71.10
2018-02-13T01:55:33.649Z,70.90
2018-02-13T01:57:59.892Z,69.50
2018-02-13T02:00:26.131Z,70.60
2018-02-13T02:02:52.362Z,70.50
2018-02-13T02:05:18.588Z,72.00
2018-02-13T02:07:44.828Z,69.10
2018-02-13T02:10:11.065Z,68.80
2018-02-13T02:12:37.395Z,69.40
2018-02-13T02:15:04.387Z,70.20
2018-02-13T02:17:30.628Z,70.20
2018-02-13T02:19:56.883Z,72.60
2018-02-13T02:22:23.080Z,73.00
2018-02-13T02:24:50.055Z,71.70
2018-02-13T02:27:16.286Z,71.30
2018-02-13T02:29:42.536Z,73.20
2018-02-13T02:32:08.757Z,71.80
2018-02-13T02:34:35.025Z,72.70
2018-02-13T02:37:01.254Z,72.40
2018-02-13T02:39:27.532Z,72.00
2018-02-13T02:41:53.789Z,73.80
2018-02-13T02:44:21.338Z,72.30
2018-02-13T02:46:47.718Z,71.60
2018-02-13T02:49:13.968Z,72.40
2018-02-13T02:51:41.366Z,70.40
2018-02-13T02:54:07.588Z,70.40
2018-02-13T02:56:34.595Z,71.40
2018-02-13T02:59:00.808Z,71.30
2018-02-13T03:01:27.071Z,71.10
2018-02-13T03:03:53.275Z,70.30
2018-02-13T03:06:19.506Z,70.20
2018-02-13T03:08:45.725Z,70.20
2018-02-13T03:11:11.992Z,70.40
2018-02-13T03:13:38.965Z,70.40
2018-02-13T03:16:05.216Z,70.30
2018-02-13T03:18:33.141Z,70.60
2018-02-13T03:20:59.364Z,69.50
2018-02-13T03:23:25.590Z,69.00
2018-02-13T03:25:51.808Z,69.90
2018-02-13T03:28:18.044Z,69.50
2018-02-13T03:30:44.996Z,70.10
2018-02-13T03:33:11.956Z,69.20
2018-02-13T03:35:38.924Z,68.60
2018-02-13T03:38:06.019Z,68.10
2018-02-13T03:40:32.274Z,68.00
2018-02-13T03:42:58.535Z,67.80
2018-02-13T03:45:24.765Z,69.40
2018-02-13T03:47:51.749Z,72.00
2018-02-13T03:50:18.715Z,70.60
2018-02-13T03:52:44.943Z,70.60
2018-02-13T03:55:11.193Z,70.60
2018-02-13T03:57:37.583Z,70.90
2018-02-13T04:00:04.013Z,70.30
2018-02-13T04:02:30.257Z,72.30
2018-02-13T04:04:56.543Z,71.10
2018-02-13T04:07:22.715Z,69.70
2018-02-13T04:09:49.025Z,67.80
2018-02-13T04:12:16.068Z,69.50
2018-02-13T04:14:42.307Z,69.40
2018-02-13T04:17:08.536Z,70.40
2018-02-13T04:19:34.778Z,68.60
2018-02-13T04:22:01.759Z,67.30
2018-02-13T04:24:28.772Z,67.80
2018-02-13T04:26:55.026Z,67.80
2018-02-13T04:29:21.252Z,68.30
2018-02-13T04:31:47.614Z,68.10
2018-02-13T04:34:13.864Z,70.30
2018-02-13T04:36:40.104Z,69.70
2018-02-13T04:39:06.336Z,68.80
2018-02-13T04:41:32.666Z,68.80
2018-02-13T04:43:58.890Z,69.10
2018-02-13T04:46:25.137Z,71.10
2018-02-13T04:48:52.085Z,70.40
2018-02-13T04:51:18.332Z,70.30
2018-02-13T04:53:44.616Z,70.80
2018-02-13T04:56:10.867Z,69.60
2018-02-13T04:58:37.156Z,70.20
2018-02-13T05:01:03.740Z,70.30
2018-02-13T05:03:30.084Z,70.20
2018-02-13T05:05:56.312Z,70.30
2018-02-13T05:08:22.572Z,70.20
2018-02-13T05:10:48.804Z,70.30
2018-02-13T05:13:15.044Z,69.50
2018-02-13T05:15:41.281Z,69.30
2018-02-13T05:18:07.492Z,71.50
2018-02-13T05:20:33.765Z,71.10
2018-02-13T05:23:00.001Z,70.20
2018-02-13T05:25:26.228Z,69.90
2018-02-13T05:27:52.463Z,71.00
2018-02-13T05:30:18.703Z,72.00
2018-02-13T05:32:44.930Z,71.30
2018-02-13T05:35:11.149Z,70.70
2018-02-13T05:37:38.220Z,70.00
2018-02-13T05:40:04.540Z,70.00
2018-02-13T05:42:30.756Z,70.00
2018-02-13T05:44:56.979Z,69.50
2018-02-13T05:47:23.197Z,69.60
2018-02-13T05:49:49.453Z,70.40
2018-02-13T05:52:16.399Z,70.60
2018-02-13T05:54:43.356Z,69.00
2018-02-13T05:57:09.628Z,68.80
2018-02-13T05:59:35.864Z,69.10
2018-02-13T06:02:02.117Z,69.10
2018-02-13T06:04:28.350Z,68.90
2018-02-13T06:06:54.617Z,69.40
2018-02-13T06:09:20.852Z,69.00
2018-02-13T06:11:47.100Z,67.80
2018-02-13T06:14:13.304Z,67.80
2018-02-13T06:16:39.552Z,67.70
2018-02-13T06:19:05.808Z,68.60
2018-02-13T06:21:32.035Z,67.70
2018-02-13T06:23:58.284Z,67.80
2018-02-13T06:26:25.324Z,67.00
2018-02-13T06:28:51.560Z,67.20
2018-02-13T06:31:17.786Z,66.00
2018-02-13T06:33:44.056Z,66.30
2018-02-13T06:36:10.295Z,66.10
2018-02-13T06:38:36.523Z,66.00
2018-02-13T06:41:02.753Z,67.30
2018-02-13T06:43:29.764Z,67.00
2018-02-13T06:45:56.052Z,67.00
2018-02-13T06:48:22.318Z,66.00
2018-02-13T06:50:48.943Z,67.30
2018-02-13T06:53:15.176Z,66.90
2018-02-13T06:55:42.165Z,66.70
2018-02-13T06:58:08.489Z,66.60
2018-02-13T07:00:34.817Z,67.60
2018-02-13T07:03:01.794Z,67.60
2018-02-13T07:05:28.205Z,67.60
2018-02-13T07:07:54.528Z,67.60
2018-02-13T07:10:20.800Z,68.80
2018-02-13T07:12:47.015Z,67.60
2018-02-13T07:15:13.336Z,67.70
2018-02-13T07:17:40.325Z,67.10
2018-02-13T07:20:07.332Z,67.40
2018-02-13T07:22:33.552Z,67.40
2018-02-13T07:25:00.621Z,66.50
2018-02-13T07:27:27.590Z,66.90
2018-02-13T07:29:53.876Z,66.70
2018-02-13T07:32:20.128Z,66.60
2018-02-13T07:34:46.503Z,65.90
2018-02-13T07:37:12.772Z,65.60
2018-02-13T07:39:39.066Z,65.30
2018-02-13T07:42:06.073Z,63.60
2018-02-13T07:44:32.320Z,63.50
2018-02-13T07:46:58.668Z,62.90
2018-02-13T07:49:25.652Z,63.20
2018-02-13T07:51:52.648Z,62.30
2018-02-13T07:54:19.609Z,62.30
2018-02-13T07:56:45.859Z,62.90
2018-02-13T07:59:12.113Z,62.60
2018-02-13T08:01:38.380Z,62.20
2018-02-13T08:04:04.592Z,61.20
2018-02-13T08:06:30.873Z,60.60
2018-02-13T08:08:57.855Z,59.40
2018-02-13T08:11:24.830Z,59.30
2018-02-13T08:13:51.261Z,59.30
2018-02-13T08:16:17.529Z,59.80
2018-02-13T08:18:43.781Z,59.40
2018-02-13T08:21:10.004Z,58.40
2018-02-13T08:23:42.561Z,58.70
2018-02-13T08:26:08.836Z,58.10
2018-02-13T08:28:35.129Z,58.20
2018-02-13T08:31:01.413Z,57.50
2018-02-13T08:33:28.800Z,57.60
2018-02-13T08:35:55.020Z,57.40
2018-02-13T08:38:22.103Z,56.10
2018-02-13T08:40:49.479Z,56.00
2018-02-13T08:43:15.722Z,56.20
2018-02-13T08:45:42.104Z,54.50
2018-02-13T08:48:09.085Z,55.20
2018-02-13T08:50:36.070Z,54.50
2018-02-13T08:53:02.440Z,54.40
2018-02-13T08:55:28.740Z,54.30
2018-02-13T08:57:54.955Z,55.20
2018-02-13T09:00:21.236Z,53.60
2018-02-13T09:02:49.250Z,52.60
2018-02-13T09:05:15.477Z,53.50
2018-02-13T09:07:41.722Z,52.70
2018-02-13T09:10:07.937Z,51.80
2018-02-13T09:12:34.164Z,51.40
2018-02-13T09:15:01.166Z,47.50
2018-02-13T09:17:27.404Z,47.40
2018-02-13T09:19:53.665Z,46.40
2018-02-13T09:22:23.843Z,43.90
2018-02-13T09:24:50.107Z,42.60
2018-02-13T09:27:16.349Z,40.50
2018-02-13T09:29:42.584Z,40.10
2018-02-13T09:32:08.865Z,39.80
2018-02-13T09:34:35.123Z,40.40
2018-02-13T09:37:01.368Z,41.80
2018-02-13T09:39:27.592Z,41.70
2018-02-13T09:41:58.097Z,42.20
2018-02-13T09:44:24.319Z,42.80
2018-02-13T09:46:50.560Z,44.00
2018-02-13T09:49:16.781Z,43.70
2018-02-13T09:51:43.034Z,44.50
2018-02-13T09:54:09.288Z,44.00
2018-02-13T09:56:35.518Z,44.00
2018-02-13T09:59:01.751Z,45.40
2018-02-13T10:01:29.597Z,45.30
2018-02-13T10:03:55.846Z,43.80
2018-02-13T10:06:22.133Z,42.80
2018-02-13T10:08:48.372Z,43.10
2018-02-13T10:11:14.658Z,42.10
2018-02-13T10:13:40.924Z,41.80
2018-02-13T10:16:07.194Z,41.70
2018-02-13T10:18:33.441Z,41.30
2018-02-13T10:21:01.613Z,39.20
2018-02-13T10:23:32.121Z,36.80
2018-02-13T10:25:58.344Z,35.20
2018-02-13T10:28:25.292Z,32.50
2018-02-13T10:30:51.520Z,32.40
2018-02-13T10:33:17.763Z,32.10
2018-02-13T10:35:44.024Z,31.70
2018-02-13T10:38:14.580Z,34.80
2018-02-13T10:40:40.821Z,31.70
2018-02-13T10:43:07.068Z,30.00
2018-02-13T10:45:33.285Z,30.40
2018-02-13T10:47:59.574Z,31.60
2018-02-13T10:50:25.790Z,32.10
2018-02-13T10:52:52.036Z,31.50
2018-02-13T10:55:21.652Z,31.60
2018-02-13T10:57:47.917Z,30.30
2018-02-13T11:00:14.189Z,29.80
2018-02-13T11:02:41.172Z,29.10
2018-02-13T11:05:07.422Z,29.10
2018-02-13T11:07:33.660Z,29.10
2018-02-13T11:09:59.880Z,30.90
2018-02-13T11:12:29.255Z,29.70
2018-02-13T11:14:55.485Z,30.50
2018-02-13T11:17:21.757Z,28.70
2018-02-13T11:19:47.989Z,29.20
2018-02-13T11:22:14.255Z,28.90
2018-02-13T11:24:40.516Z,29.60
2018-02-13T11:27:06.816Z,31.50
2018-02-13T11:29:33.088Z,31.50
2018-02-13T11:32:01.073Z,30.90
2018-02-13T11:34:27.258Z,30.90
2018-02-13T11:36:53.592Z,30.50
2018-02-13T11:39:19.951Z,30.10
2018-02-13T11:41:46.940Z,29.70
2018-02-13T11:44:13.963Z,30.10
2018-02-13T11:46:40.253Z,30.30
2018-02-13T11:49:06.526Z,29.50
2018-02-13T11:51:34.505Z,29.30
2018-02-13T11:54:01.503Z,29.70
2018-02-13T11:56:27.752Z,29.60
2018-02-13T11:58:53.989Z,29.90
2018-02-13T12:01:20.969Z,31.40
2018-02-13T12:03:47.414Z,31.80
2018-02-13T12:06:13.874Z,28.80
2018-02-13T12:08:43.695Z,29.40
2018-02-13T12:11:09.914Z,28.60
2018-02-13T12:13:36.898Z,28.00
2018-02-13T12:16:03.151Z,28.00
2018-02-13T12:18:29.476Z,27.00
2018-02-13T12:20:55.734Z,27.30
2018-02-13T12:23:21.980Z,28.30
2018-02-13T12:25:50.312Z,27.40
2018-02-13T12:28:17.481Z,27.80
2018-02-13T12:30:44.477Z,26.20
2018-02-13T12:33:10.741Z,26.70
2018-02-13T12:35:37.085Z,26.50
2018-02-13T12:38:03.326Z,25.00
2018-02-13T12:43:01.004Z,25.40
2018-02-13T12:45:27.311Z,24.80
2018-02-13T12:47:53.580Z,23.90
2018-02-13T12:50:20.571Z,25.90
2018-02-13T12:52:46.832Z,25.80
2018-02-13T12:55:13.124Z,25.30
2018-02-13T12:57:40.144Z,24.50
2018-02-13T13:00:12.605Z,25.10
2018-02-13T13:02:38.872Z,24.30
2018-02-13T13:05:05.256Z,26.70
2018-02-13T13:07:31.579Z,25.00
2018-02-13T13:09:57.811Z,24.70
2018-02-13T13:12:24.042Z,25.40
2018-02-13T13:14:50.272Z,25.00
2018-02-13T13:17:16.601Z,25.70
2018-02-13T13:19:45.697Z,25.70
2018-02-13T13:22:16.016Z,26.50
2018-02-13T13:24:42.260Z,26.40
2018-02-13T13:27:10.249Z,28.10
2018-02-13T13:29:36.523Z,28.10
2018-02-13T13:32:03.594Z,28.60
2018-02-13T13:34:30.585Z,27.30
2018-02-13T13:37:00.502Z,27.30
2018-02-13T13:39:26.790Z,26.60
2018-02-13T13:41:53.013Z,24.30
2018-02-13T13:44:19.249Z,24.20
2018-02-13T13:46:45.638Z,24.70
2018-02-13T13:49:11.958Z,24.80
2018-02-13T13:51:38.013Z,24.20
2018-02-13T13:54:04.847Z,24.00
2018-02-13T13:56:33.107Z,25.00
2018-02-13T13:58:59.995Z,24.60
2018-02-13T14:01:26.056Z,24.70
2018-02-13T14:03:52.116Z,22.50
2018-02-13T14:06:18.275Z,22.00
2018-02-13T14:08:44.325Z,22.00
2018-02-13T14:11:11.115Z,21.20
2018-02-13T14:13:37.185Z,21.30
2018-02-13T14:16:05.780Z,20.90
2018-02-13T14:18:31.840Z,21.70
2018-02-13T14:20:57.892Z,22.90
2018-02-13T14:23:23.931Z,24.10
2018-02-13T14:25:49.968Z,22.90
2018-02-13T14:28:16.130Z,23.20
2018-02-13T14:30:42.172Z,22.40
2018-02-13T14:33:08.962Z,22.60
2018-02-13T14:35:35.060Z,22.00
2018-02-13T14:38:02.491Z,22.10
2018-02-13T14:40:28.549Z,21.60
2018-02-13T14:42:54.599Z,22.50
2018-02-13T14:45:20.644Z,22.20
2018-02-13T14:47:47.419Z,23.70
2018-02-13T14:50:13.452Z,23.80
2018-02-13T14:52:39.812Z,23.20
2018-02-13T14:55:05.940Z,23.50
2018-02-13T14:57:33.043Z,22.80
2018-02-13T15:00:00.851Z,22.70
2018-02-13T15:02:26.904Z,23.70
2018-02-13T15:04:53.048Z,23.00
2018-02-13T15:07:19.084Z,23.30
2018-02-13T15:09:45.218Z,23.50
2018-02-13T15:12:11.301Z,24.00
2018-02-13T15:14:38.114Z,25.90
2018-02-13T15:20:09.449Z,26.00
2018-02-13T15:22:36.892Z,26.30
2018-02-13T15:25:02.936Z,26.20
2018-02-13T15:27:28.987Z,26.50
2018-02-13T15:29:55.868Z,26.80
2018-02-13T15:32:26.048Z,26.80
2018-02-13T15:34:52.142Z,26.80
2018-02-13T15:37:18.936Z,27.20
2018-02-13T15:39:44.995Z,27.10
2018-02-13T15:42:11.036Z,27.20
2018-02-13T15:44:37.142Z,27.00
2018-02-13T15:47:05.271Z,27.00
2018-02-13T15:49:32.081Z,27.40
2018-02-13T15:51:58.270Z,27.50
2018-02-13T15:54:25.218Z,27.90
2018-02-13T15:56:51.449Z,27.40
2018-02-13T15:59:17.617Z,27.50
2018-02-13T16:01:44.400Z,28.30
2018-02-13T16:04:10.440Z,28.20
2018-02-13T16:06:36.608Z,28.60
2018-02-13T16:09:03.439Z,29.40
2018-02-13T16:11:29.527Z,29.40
2018-02-13T16:13:56.336Z,29.40
2018-02-13T16:16:22.371Z,30.60
2018-02-13T16:18:48.429Z,29.30
2018-02-13T16:21:14.512Z,29.50
2018-02-13T16:23:40.644Z,28.00
2018-02-13T16:26:10.776Z,29.00
2018-02-13T16:28:37.643Z,28.50
2018-02-13T16:31:04.445Z,29.10
2018-02-13T16:33:30.497Z,29.10
2018-02-13T16:35:56.556Z,28.70
2018-02-13T16:38:22.596Z,28.40
2018-02-13T16:40:49.389Z,29.30
2018-02-13T16:43:18.860Z,29.10
2018-02-13T16:45:44.913Z,29.10
2018-02-13T16:48:11.924Z,29.20
2018-02-13T16:50:39.036Z,29.40
2018-02-13T16:53:05.277Z,29.40
2018-02-13T16:55:31.521Z,29.10
2018-02-13T16:57:59.580Z,29.50
2018-02-13T17:00:26.140Z,29.80
2018-02-13T17:02:52.376Z,29.80
2018-02-13T17:05:19.516Z,29.80
2018-02-13T17:07:45.758Z,29.80
2018-02-13T17:10:12.222Z,29.70
2018-02-13T17:12:39.372Z,31.70
2018-02-13T17:15:09.856Z,30.90
2018-02-13T17:17:39.878Z,30.40
2018-02-13T17:20:06.134Z,31.50
2018-02-13T17:22:32.770Z,31.50
2018-02-13T17:24:59.131Z,31.50
2018-02-13T17:27:25.476Z,31.80
2018-02-13T17:29:52.490Z,32.40
2018-02-13T17:32:18.744Z,32.40
2018-02-13T17:34:45.278Z,32.40
2018-02-13T17:37:11.584Z,32.80
2018-02-13T17:39:37.880Z,32.60
2018-02-13T17:42:04.738Z,33.30
2018-02-13T17:44:31.249Z,33.20
2018-02-13T17:46:57.672Z,33.10
2018-02-13T17:49:26.922Z,33.40
2018-02-13T17:51:53.083Z,33.90
2018-02-13T17:54:19.359Z,33.40
2018-02-13T17:56:45.612Z,33.40
2018-02-13T17:59:12.651Z,33.40
2018-02-13T18:01:39.024Z,33.50
2018-02-13T18:04:06.031Z,33.80
2018-02-13T18:06:36.311Z,33.70
2018-02-13T18:09:02.357Z,33.40
2018-02-13T18:11:28.388Z,33.40
2018-02-13T18:13:54.413Z,33.00
2018-02-13T18:16:20.456Z,33.80
2018-02-13T18:18:46.504Z,34.20
2018-02-13T18:21:12.556Z,33.90
2018-02-13T18:23:38.601Z,34.20
2018-02-13T18:26:07.061Z,33.40
2018-02-13T18:28:33.096Z,33.70
2018-02-13T18:30:59.142Z,34.40
2018-02-13T18:33:25.172Z,34.40
2018-02-13T18:35:51.256Z,34.30
2018-02-13T18:38:17.292Z,34.40
2018-02-13T18:40:43.315Z,34.70
2018-02-13T18:43:09.351Z,34.70
2018-02-13T18:45:38.876Z,35.10
2018-02-13T18:48:04.984Z,35.10
2018-02-13T18:50:31.254Z,34.90
2018-02-13T18:55:23.916Z,35.00
2018-02-13T18:57:50.192Z,35.00
2018-02-13T19:00:16.440Z,35.30
2018-02-13T19:02:42.667Z,35.10
2018-02-13T19:05:13.668Z,35.60
2018-02-13T19:07:40.036Z,35.70
2018-02-13T19:10:07.075Z,35.60
2018-02-13T19:12:33.396Z,35.60
2018-02-13T19:15:00.536Z,35.80
2018-02-13T19:17:26.757Z,35.80
2018-02-13T19:19:53.040Z,36.30
2018-02-13T19:22:19.243Z,36.10
2018-02-13T19:24:49.728Z,35.60
2018-02-13T19:27:15.975Z,36.00
2018-02-13T19:29:42.223Z,36.30
2018-02-13T19:34:47.062Z,37.30
2018-02-13T19:37:13.316Z,37.00
2018-02-13T19:39:39.679Z,37.40
2018-02-13T19:42:08.266Z,38.10
2018-02-13T19:44:35.249Z,38.30
2018-02-13T19:47:01.888Z,38.20
2018-02-13T19:49:28.164Z,38.30
2018-02-13T19:51:54.392Z,38.40
2018-02-13T19:54:20.632Z,38.40
2018-02-13T19:56:47.625Z,38.80
2018-02-13T19:59:13.843Z,38.40
2018-02-13T20:01:40.115Z,39.50
2018-02-13T20:04:06.372Z,39.10
2018-02-13T20:06:33.393Z,39.70
2018-02-13T20:08:59.650Z,39.70
2018-02-13T20:11:26.617Z,40.40
2018-02-13T20:13:52.861Z,40.40
2018-02-13T20:16:19.145Z,41.10
2018-02-13T20:18:45.409Z,41.60
2018-02-13T20:21:14.880Z,41.50
2018-02-13T20:23:41.135Z,42.20
2018-02-13T20:26:08.088Z,42.20
2018-02-13T20:28:36.789Z,44.30
2018-02-13T20:31:03.051Z,43.90
2018-02-13T20:33:30.049Z,46.30
2018-02-13T20:35:57.057Z,46.30
2018-02-13T20:38:23.397Z,46.30
2018-02-13T20:40:49.808Z,46.00
2018-02-13T20:43:22.783Z,46.00
2018-02-13T20:45:49.032Z,46.00
2018-02-13T20:48:15.381Z,46.20
2018-02-13T20:50:41.658Z,45.90
2018-02-13T20:53:08.016Z,46.50
2018-02-13T20:55:34.291Z,46.80
2018-02-13T20:58:00.570Z,46.60
2018-02-13T21:00:28.593Z,47.90
2018-02-13T21:02:55.690Z,47.20
2018-02-13T21:05:23.392Z,47.50
2018-02-13T21:07:49.658Z,46.80
2018-02-13T21:10:15.976Z,46.40
2018-02-13T21:12:45.519Z,48.70
2018-02-13T21:15:12.402Z,46.30
2018-02-13T21:17:42.765Z,46.10
2018-02-13T21:20:09.041Z,46.90
2018-02-13T21:22:35.305Z,46.50
2018-02-13T21:25:01.588Z,46.70
2018-02-13T21:27:27.837Z,47.90
2018-02-13T21:29:54.070Z,49.40
2018-02-13T21:32:20.333Z,48.80
2018-02-13T21:34:46.614Z,48.50
2018-02-13T21:37:14.694Z,49.90
2018-02-13T21:39:40.972Z,49.90
2018-02-13T21:42:07.261Z,50.40
2018-02-13T21:44:33.560Z,49.70
2018-02-13T21:46:59.826Z,50.00
2018-02-13T21:49:26.096Z,52.00
2018-02-13T21:51:52.395Z,51.60
2018-02-13T21:54:22.719Z,53.40
2018-02-13T21:56:48.952Z,54.60
2018-02-13T21:59:15.204Z,54.50
2018-02-13T22:01:41.556Z,54.40
2018-02-13T22:04:07.808Z,55.00
2018-02-13T22:06:34.126Z,50.60
2018-02-13T22:09:01.152Z,46.00
2018-02-13T22:11:27.417Z,46.00
2018-02-13T22:13:54.417Z,44.10
2018-02-13T22:16:20.684Z,44.10
2018-02-13T22:18:50.260Z,42.00
2018-02-13T22:21:16.516Z,42.30
2018-02-13T22:23:43.575Z,40.40
2018-02-13T22:26:09.834Z,40.30
2018-02-13T22:28:36.880Z,41.30
2018-02-13T22:31:03.114Z,41.00
2018-02-13T22:33:29.400Z,39.60
2018-02-13T22:35:55.632Z,39.90
2018-02-13T22:38:22.626Z,40.80
2018-02-13T22:40:48.906Z,40.70
2018-02-13T22:43:15.169Z,39.10
2018-02-13T22:45:41.481Z,39.40
2018-02-13T22:48:07.770Z,39.20
2018-02-13T22:50:34.044Z,39.10
2018-02-13T22:53:00.616Z,39.90
2018-02-13T22:55:26.947Z,39.00
2018-02-13T22:57:53.242Z,39.80
2018-02-13T23:00:20.300Z,39.80
2018-02-13T23:02:46.613Z,39.70
2018-02-13T23:05:12.864Z,39.70
2018-02-13T23:07:40.288Z,40.00
2018-02-13T23:10:06.592Z,40.90
2018-02-13T23:12:32.849Z,41.20
2018-02-13T23:14:59.108Z,39.70
2018-02-13T23:17:25.440Z,40.00
2018-02-13T23:19:51.802Z,40.60
2018-02-13T23:22:18.105Z,40.00
2018-02-13T23:24:45.200Z,40.30
2018-02-13T23:27:11.641Z,40.30
2018-02-13T23:29:37.905Z,40.70
2018-02-13T23:32:04.164Z,39.80
2018-02-13T23:34:30.400Z,39.90
2018-02-13T23:36:56.680Z,38.80
2018-02-13T23:39:22.957Z,38.70
2018-02-13T23:41:49.251Z,39.80
2018-02-13T23:44:15.510Z,39.40
2018-02-13T23:46:43.153Z,39.40
2018-02-13T23:49:09.389Z,39.50
2018-02-13T23:51:35.659Z,39.90
2018-02-13T23:54:01.954Z,39.90
2018-02-13T23:56:28.201Z,40.10
2018-02-13T23:58:54.478Z,39.60
